createdAt,value
2017-10-20T00:00:16.461Z,11.10
2017-10-20T00:02:44.774Z,11.10
2017-10-20T00:05:13.098Z,11.12
2017-10-20T00:07:41.402Z,11.11
2017-10-20T00:10:10.492Z,11.11
2017-10-20T00:12:39.572Z,11.10
2017-10-20T00:15:07.894Z,11.10
2017-10-20T00:17:36.207Z,11.09
2017-10-20T00:20:04.528Z,11.10
2017-10-20T00:22:32.839Z,11.05
2017-10-20T00:25:01.168Z,11.03
2017-10-20T00:27:29.495Z,11.05
2017-10-20T00:29:57.823Z,11.03
2017-10-20T00:32:26.135Z,11.02
2017-10-20T00:34:54.442Z,10.95
2017-10-20T00:37:22.767Z,10.95
2017-10-20T00:39:51.848Z,10.91
2017-10-20T00:42:20.158Z,10.91
2017-10-20T00:44:48.475Z,10.92
2017-10-20T00:47:16.786Z,10.90
2017-10-20T00:49:45.883Z,10.85
2017-10-20T00:52:14.972Z,10.82
2017-10-20T00:54:43.299Z,10.81
2017-10-20T00:57:11.609Z,10.77
2017-10-20T00:59:39.926Z,10.73
2017-10-20T01:02:09.002Z,10.72
2017-10-20T01:04:37.338Z,10.72
2017-10-20T01:07:05.648Z,10.75
2017-10-20T01:09:33.965Z,10.80
2017-10-20T01:12:02.293Z,10.82
2017-10-20T01:14:30.600Z,10.78
2017-10-20T01:16:59.687Z,10.78
2017-10-20T01:19:28.009Z,10.76
2017-10-20T01:21:56.326Z,10.74
2017-10-20T01:24:24.642Z,10.80
2017-10-20T01:26:52.966Z,10.82
2017-10-20T01:29:21.267Z,10.90
2017-10-20T01:31:49.578Z,10.93
2017-10-20T01:34:17.883Z,10.98
2017-10-20T01:36:46.199Z,11.04
2017-10-20T01:39:14.516Z,11.05
2017-10-20T01:41:42.834Z,11.04
2017-10-20T01:44:11.181Z,11.06
2017-10-20T01:46:39.501Z,11.06
2017-10-20T01:49:07.805Z,11.09
2017-10-20T01:51:36.894Z,11.07
2017-10-20T01:54:05.966Z,11.07
2017-10-20T01:56:34.282Z,11.04
2017-10-20T01:59:03.357Z,10.99
2017-10-20T02:01:31.679Z,10.99
2017-10-20T02:03:59.989Z,10.95
2017-10-20T02:06:28.306Z,10.94
2017-10-20T02:08:57.373Z,10.87
2017-10-20T02:11:25.685Z,10.80
2017-10-20T02:13:53.992Z,10.76
2017-10-20T02:16:22.310Z,10.69
2017-10-20T02:18:50.615Z,10.62
2017-10-20T02:21:19.699Z,10.58
2017-10-20T02:23:48.766Z,10.59
2017-10-20T02:26:17.098Z,10.58
2017-10-20T02:28:45.412Z,10.55
2017-10-20T02:31:13.768Z,10.59
2017-10-20T02:33:42.094Z,10.55
2017-10-20T02:36:10.404Z,10.57
2017-10-20T02:38:38.721Z,10.60
2017-10-20T02:41:07.036Z,10.60
2017-10-20T02:43:36.123Z,10.65
2017-10-20T02:46:05.194Z,10.65
2017-10-20T02:48:33.520Z,10.68
2017-10-20T02:51:01.841Z,10.67
2017-10-20T02:53:30.163Z,10.70
2017-10-20T02:55:59.239Z,10.71
2017-10-20T02:58:28.327Z,10.81
2017-10-20T03:00:56.643Z,10.82
2017-10-20T03:03:24.963Z,10.84
2017-10-20T03:05:53.283Z,10.89
2017-10-20T03:08:22.411Z,11.00
2017-10-20T03:10:50.719Z,11.05
2017-10-20T03:13:19.043Z,11.13
2017-10-20T03:15:48.150Z,11.17
2017-10-20T03:18:16.541Z,11.19
2017-10-20T03:20:44.863Z,11.17
2017-10-20T03:23:13.185Z,11.26
2017-10-20T03:25:41.511Z,11.24
2017-10-20T03:28:09.818Z,11.31
2017-10-20T03:30:38.919Z,11.34
2017-10-20T03:33:08.003Z,11.38
2017-10-20T03:35:37.108Z,11.44
2017-10-20T03:38:05.433Z,11.45
2017-10-20T03:40:33.750Z,11.52
2017-10-20T03:43:02.059Z,11.58
2017-10-20T03:45:30.390Z,11.64
2017-10-20T03:47:58.706Z,11.74
2017-10-20T03:50:27.022Z,11.75
2017-10-20T03:52:55.361Z,11.79
2017-10-20T03:55:23.758Z,11.81
2017-10-20T03:57:52.078Z,11.82
2017-10-20T04:00:20.413Z,11.87
2017-10-20T04:02:48.726Z,11.92
2017-10-20T04:05:17.054Z,11.92
2017-10-20T04:07:45.359Z,11.92
2017-10-20T04:10:13.674Z,11.91
2017-10-20T04:12:41.987Z,11.79
2017-10-20T04:15:10.311Z,11.70
2017-10-20T04:17:38.627Z,11.65
2017-10-20T04:20:07.718Z,11.65
2017-10-20T04:22:36.799Z,11.65
2017-10-20T04:25:05.126Z,11.66
2017-10-20T04:27:33.436Z,11.64
2017-10-20T04:30:01.756Z,11.58
2017-10-20T04:32:30.063Z,11.53
2017-10-20T04:34:58.382Z,11.53
2017-10-20T04:37:26.694Z,11.49
2017-10-20T04:39:55.018Z,11.45
2017-10-20T04:42:23.330Z,11.38
2017-10-20T04:44:52.422Z,11.36
2017-10-20T04:47:21.500Z,11.32
2017-10-20T04:49:49.844Z,11.30
2017-10-20T04:52:18.730Z,11.19
2017-10-20T04:54:47.037Z,11.14
2017-10-20T04:57:15.511Z,11.07
2017-10-20T04:59:43.825Z,11.03
2017-10-20T05:02:12.911Z,11.05
2017-10-20T05:04:41.227Z,11.04
2017-10-20T05:07:09.550Z,11.04
2017-10-20T05:09:37.861Z,11.02
2017-10-20T05:12:06.951Z,11.01
2017-10-20T05:14:36.022Z,11.06
2017-10-20T05:17:04.342Z,11.11
2017-10-20T05:19:32.656Z,11.15
2017-10-20T05:22:00.987Z,11.24
2017-10-20T05:24:29.316Z,11.26
2017-10-20T05:26:57.638Z,11.30
2017-10-20T05:29:26.715Z,11.24
2017-10-20T05:31:55.805Z,11.22
2017-10-20T05:34:24.895Z,11.20
2017-10-20T05:36:53.210Z,11.16
2017-10-20T05:39:21.513Z,11.10
2017-10-20T05:41:49.918Z,11.06
2017-10-20T05:44:18.225Z,11.05
2017-10-20T05:46:47.395Z,11.12
2017-10-20T05:49:15.702Z,11.17
2017-10-20T05:51:44.778Z,11.21
2017-10-20T05:54:13.878Z,11.19
2017-10-20T05:56:42.993Z,11.20
2017-10-20T05:59:12.071Z,11.20
2017-10-20T06:01:40.395Z,11.17
2017-10-20T06:04:08.699Z,11.13
2017-10-20T06:06:37.010Z,11.14
2017-10-20T06:09:06.096Z,11.09
2017-10-20T06:11:34.418Z,11.06
2017-10-20T06:14:02.735Z,11.13
2017-10-20T06:16:31.068Z,11.17
2017-10-20T06:18:59.379Z,11.21
2017-10-20T06:21:27.695Z,11.31
2017-10-20T06:23:56.825Z,11.41
2017-10-20T06:26:25.135Z,11.52
2017-10-20T06:28:53.446Z,11.58
2017-10-20T06:31:22.526Z,11.67
2017-10-20T06:33:50.847Z,11.73
2017-10-20T06:36:19.275Z,11.82
2017-10-20T06:38:47.590Z,11.94
2017-10-20T06:41:16.706Z,11.98
2017-10-20T06:43:45.007Z,12.12
2017-10-20T06:46:13.314Z,12.22
2017-10-20T06:48:41.630Z,12.35
2017-10-20T06:51:09.935Z,12.40
2017-10-20T06:53:38.245Z,12.49
2017-10-20T06:56:06.550Z,12.63
2017-10-20T06:58:34.866Z,12.67
2017-10-20T07:01:03.174Z,12.92
2017-10-20T07:03:31.497Z,13.04
2017-10-20T07:05:59.817Z,13.02
2017-10-20T07:08:28.140Z,13.05
2017-10-20T07:10:56.455Z,13.14
2017-10-20T07:13:24.856Z,13.19
2017-10-20T07:15:53.925Z,13.45
2017-10-20T07:18:22.268Z,13.79
2017-10-20T07:21:01.125Z,14.09
2017-10-20T07:23:29.447Z,14.06
2017-10-20T07:25:58.531Z,14.21
2017-10-20T07:28:26.847Z,14.20
2017-10-20T07:30:55.163Z,14.23
2017-10-20T07:33:23.507Z,14.13
2017-10-20T07:35:51.810Z,14.23
2017-10-20T07:38:20.153Z,14.23
2017-10-20T07:40:48.463Z,14.36
2017-10-20T07:43:16.826Z,14.27
2017-10-20T07:45:45.135Z,14.42
2017-10-20T07:48:13.466Z,14.53
2017-10-20T07:50:41.774Z,14.57
2017-10-20T07:53:10.095Z,14.69
2017-10-20T07:55:39.175Z,14.82
2017-10-20T07:58:07.500Z,14.93
2017-10-20T08:00:35.812Z,15.01
2017-10-20T08:03:04.138Z,15.12
2017-10-20T08:05:33.218Z,15.51
2017-10-20T08:08:02.331Z,15.53
2017-10-20T08:10:31.409Z,15.73
2017-10-20T08:13:00.490Z,15.71
2017-10-20T08:15:28.802Z,15.91
2017-10-20T08:17:57.117Z,16.10
2017-10-20T08:20:25.455Z,16.32
2017-10-20T08:22:54.543Z,16.64
2017-10-20T08:25:23.627Z,16.96
2017-10-20T08:27:51.958Z,17.32
2017-10-20T08:30:20.288Z,17.92
2017-10-20T08:32:49.379Z,17.96
2017-10-20T08:35:18.460Z,17.92
2017-10-20T08:37:46.795Z,18.41
2017-10-20T08:40:15.107Z,18.14
2017-10-20T08:42:43.426Z,18.15
2017-10-20T08:45:11.738Z,18.29
2017-10-20T08:47:40.057Z,18.19
2017-10-20T08:50:08.380Z,17.99
2017-10-20T08:52:36.700Z,18.14
2017-10-20T08:55:05.025Z,18.42
2017-10-20T08:57:33.338Z,18.42
2017-10-20T09:00:01.655Z,18.41
2017-10-20T09:02:30.734Z,18.28
2017-10-20T09:04:59.827Z,18.49
2017-10-20T09:07:28.134Z,18.81
2017-10-20T09:09:57.228Z,18.92
2017-10-20T09:12:26.319Z,19.04
2017-10-20T09:14:55.406Z,19.08
2017-10-20T09:17:24.497Z,19.11
2017-10-20T09:19:52.810Z,19.14
2017-10-20T09:22:21.132Z,19.07
2017-10-20T09:24:49.459Z,18.92
2017-10-20T09:27:17.777Z,18.89
2017-10-20T09:29:46.106Z,18.84
2017-10-20T09:32:14.427Z,18.72
2017-10-20T09:34:42.757Z,18.84
2017-10-20T09:37:11.062Z,18.82
2017-10-20T09:39:39.382Z,18.87
2017-10-20T09:42:07.695Z,18.70
2017-10-20T09:44:36.019Z,18.76
2017-10-20T09:47:04.321Z,18.96
2017-10-20T09:49:32.643Z,19.26
2017-10-20T09:52:00.943Z,19.21
2017-10-20T09:54:29.276Z,19.80
2017-10-20T09:56:57.596Z,19.92
2017-10-20T09:59:25.910Z,20.05
2017-10-20T10:01:54.987Z,19.89
2017-10-20T10:04:23.303Z,19.83
2017-10-20T10:06:52.377Z,19.70
2017-10-20T10:09:20.695Z,19.50
2017-10-20T10:11:49.014Z,19.27
2017-10-20T10:14:17.346Z,19.05
2017-10-20T10:16:45.650Z,18.78
2017-10-20T10:19:13.974Z,18.48
2017-10-20T10:21:43.054Z,18.21
2017-10-20T10:24:11.396Z,18.13
2017-10-20T10:26:39.718Z,18.15
2017-10-20T10:29:08.022Z,17.88
2017-10-20T10:31:36.347Z,17.74
2017-10-20T10:34:04.661Z,17.78
2017-10-20T10:36:33.745Z,17.63
2017-10-20T10:39:02.843Z,17.68
2017-10-20T10:41:31.935Z,17.68
2017-10-20T10:44:00.246Z,17.68
2017-10-20T10:46:28.566Z,17.62
2017-10-20T10:48:56.879Z,17.66
2017-10-20T10:51:25.958Z,17.54
2017-10-20T10:53:54.270Z,17.43
2017-10-20T10:56:22.596Z,17.31
2017-10-20T10:58:50.909Z,17.32
2017-10-20T11:01:19.248Z,17.28
2017-10-20T11:03:47.565Z,17.28
2017-10-20T11:09:30.208Z,17.19
2017-10-20T11:12:16.214Z,17.24
2017-10-20T11:14:44.538Z,17.13
2017-10-20T11:17:12.859Z,17.24
2017-10-20T11:19:41.178Z,17.29
2017-10-20T11:22:09.490Z,17.23
2017-10-20T11:24:38.582Z,17.19
2017-10-20T11:27:06.891Z,17.13
2017-10-20T11:29:35.219Z,16.99
2017-10-20T11:32:03.526Z,17.00
2017-10-20T11:34:32.616Z,16.92
2017-10-20T11:37:01.712Z,16.95
2017-10-20T11:39:30.815Z,16.89
2017-10-20T11:41:59.907Z,16.82
2017-10-20T11:44:29.003Z,16.82
2017-10-20T11:46:58.082Z,16.86
2017-10-20T11:49:26.417Z,16.59
2017-10-20T11:51:54.738Z,16.62
2017-10-20T11:54:23.061Z,16.67
2017-10-20T11:56:51.371Z,16.59
2017-10-20T11:59:19.704Z,16.70
2017-10-20T12:01:48.026Z,16.72
2017-10-20T12:04:16.339Z,16.79
2017-10-20T12:06:45.422Z,16.81
2017-10-20T12:09:13.741Z,16.83
2017-10-20T12:11:42.063Z,16.85
2017-10-20T12:14:10.366Z,16.79
2017-10-20T12:16:38.715Z,16.83
2017-10-20T12:19:07.026Z,16.88
2017-10-20T12:21:36.111Z,16.81
2017-10-20T12:24:05.186Z,16.71
2017-10-20T12:26:33.506Z,16.58
2017-10-20T12:29:01.827Z,16.46
2017-10-20T12:31:30.146Z,16.42
2017-10-20T12:33:59.221Z,16.37
2017-10-20T12:36:27.531Z,16.25
2017-10-20T12:38:55.839Z,16.21
2017-10-20T12:41:24.163Z,16.13
2017-10-20T12:43:53.246Z,16.00
2017-10-20T12:46:21.566Z,16.01
2017-10-20T12:48:49.876Z,16.06
2017-10-20T12:51:18.198Z,16.01
2017-10-20T12:53:47.271Z,16.05
2017-10-20T12:56:15.590Z,16.09
2017-10-20T12:58:43.901Z,16.03
2017-10-20T13:01:12.226Z,16.08
2017-10-20T13:03:41.298Z,16.11
2017-10-20T13:06:09.610Z,16.28
2017-10-20T13:08:37.924Z,16.20
2017-10-20T13:11:06.245Z,16.14
2017-10-20T13:13:35.322Z,16.30
2017-10-20T13:16:03.652Z,16.31
2017-10-20T13:18:31.967Z,16.49
2017-10-20T13:21:00.287Z,16.50
2017-10-20T13:23:28.605Z,16.45
2017-10-20T13:25:56.934Z,16.40
2017-10-20T13:28:25.249Z,16.43
2017-10-20T13:30:53.565Z,16.32
2017-10-20T13:33:21.866Z,16.32
2017-10-20T13:35:50.947Z,16.30
2017-10-20T13:38:19.253Z,16.17
2017-10-20T13:40:47.585Z,16.23
2017-10-20T13:43:15.899Z,16.25
2017-10-20T13:45:45.678Z,16.24
2017-10-20T13:48:13.982Z,16.23
2017-10-20T13:50:43.066Z,16.24
2017-10-20T13:53:12.171Z,16.27
2017-10-20T13:55:41.255Z,16.28
2017-10-20T13:58:09.563Z,16.25
2017-10-20T14:00:37.869Z,16.30
2017-10-20T14:03:06.185Z,16.49
2017-10-20T14:05:35.276Z,16.73
2017-10-20T14:08:03.585Z,16.72
2017-10-20T14:10:31.923Z,16.68
2017-10-20T14:13:00.239Z,16.67
2017-10-20T14:15:28.546Z,16.84
2017-10-20T14:17:56.865Z,16.94
2017-10-20T14:20:25.170Z,17.01
2017-10-20T14:22:53.498Z,17.09
2017-10-20T14:25:21.845Z,17.02
2017-10-20T14:27:50.153Z,17.00
2017-10-20T14:30:18.462Z,17.09
2017-10-20T14:32:47.554Z,17.17
2017-10-20T14:35:16.631Z,17.30
2017-10-20T14:37:44.958Z,17.34
2017-10-20T14:40:13.257Z,17.35
2017-10-20T14:42:41.575Z,17.37
2017-10-20T14:45:09.890Z,17.45
2017-10-20T14:47:38.211Z,17.36
2017-10-20T14:50:06.518Z,17.35
2017-10-20T14:52:35.604Z,17.21
2017-10-20T14:55:04.679Z,17.10
2017-10-20T14:57:32.999Z,17.07
2017-10-20T15:00:02.082Z,16.95
2017-10-20T15:02:31.182Z,16.78
2017-10-20T15:05:00.257Z,16.74
2017-10-20T15:07:28.578Z,16.74
2017-10-20T15:09:56.882Z,16.77
2017-10-20T15:12:25.212Z,16.76
2017-10-20T15:14:53.530Z,16.75
2017-10-20T15:17:21.846Z,16.81
2017-10-20T15:19:50.164Z,16.86
2017-10-20T15:22:18.485Z,16.87
2017-10-20T15:24:46.793Z,16.93
2017-10-20T15:27:15.870Z,16.84
2017-10-20T15:29:44.188Z,16.88
2017-10-20T15:32:12.507Z,16.87
2017-10-20T15:34:40.817Z,16.87
2017-10-20T15:37:09.139Z,16.86
2017-10-20T15:39:37.448Z,16.90
2017-10-20T15:42:05.781Z,16.86
2017-10-20T15:44:34.090Z,16.79
2017-10-20T15:47:02.403Z,16.72
2017-10-20T15:49:31.478Z,16.75
2017-10-20T15:51:59.807Z,16.78
2017-10-20T15:54:28.122Z,16.71
2017-10-20T15:56:56.447Z,16.62
2017-10-20T15:59:24.757Z,16.66
2017-10-20T16:01:53.074Z,16.56
2017-10-20T16:04:21.391Z,16.40
2017-10-20T16:06:49.702Z,16.37
2017-10-20T16:09:18.002Z,16.24
2017-10-20T16:11:46.334Z,16.26
2017-10-20T16:14:14.643Z,16.14
2017-10-20T16:16:42.986Z,16.13
2017-10-20T16:19:11.294Z,16.04
2017-10-20T16:21:39.616Z,16.01
2017-10-20T16:24:08.683Z,15.92
2017-10-20T16:26:37.017Z,15.91
2017-10-20T16:29:05.326Z,15.84
2017-10-20T16:31:33.657Z,15.79
2017-10-20T16:34:01.967Z,15.65
2017-10-20T16:36:30.297Z,15.52
2017-10-20T16:38:58.632Z,15.44
2017-10-20T16:41:26.964Z,15.40
2017-10-20T16:43:55.330Z,15.31
2017-10-20T16:46:24.423Z,15.25
2017-10-20T16:48:53.498Z,15.15
2017-10-20T16:51:21.842Z,15.11
2017-10-20T16:53:50.194Z,15.05
2017-10-20T16:56:18.499Z,15.06
2017-10-20T16:58:46.810Z,15.14
2017-10-20T17:01:15.118Z,15.29
2017-10-20T17:03:43.434Z,15.52
2017-10-20T17:06:11.748Z,15.62
2017-10-20T17:08:40.839Z,15.53
2017-10-20T17:11:09.170Z,15.59
2017-10-20T17:13:37.487Z,15.60
2017-10-20T17:16:05.796Z,15.65
2017-10-20T17:18:34.110Z,15.67
2017-10-20T17:21:02.423Z,15.77
2017-10-20T17:23:30.757Z,16.00
2017-10-20T17:25:59.075Z,16.00
2017-10-20T17:28:27.411Z,16.08
2017-10-20T17:30:55.733Z,16.26
2017-10-20T17:33:24.063Z,16.32
2017-10-20T17:35:52.506Z,16.16
2017-10-20T17:38:21.622Z,15.88
2017-10-20T17:40:49.926Z,15.67
2017-10-20T17:43:18.243Z,15.49
2017-10-20T17:45:46.564Z,15.34
2017-10-20T17:48:14.900Z,15.16
2017-10-20T17:50:43.205Z,15.05
2017-10-20T17:53:11.522Z,14.88
2017-10-20T17:55:39.835Z,14.68
2017-10-20T17:58:08.936Z,14.54
2017-10-20T18:00:37.253Z,14.43
2017-10-20T18:03:05.566Z,14.34
2017-10-20T18:05:33.884Z,14.22
2017-10-20T18:08:02.204Z,14.14
2017-10-20T18:10:30.515Z,14.05
2017-10-20T18:12:58.851Z,13.98
2017-10-20T18:15:27.156Z,13.98
2017-10-20T18:17:55.470Z,13.87
2017-10-20T18:20:23.797Z,13.76
2017-10-20T18:22:52.103Z,13.75
2017-10-20T18:25:20.422Z,13.67
2017-10-20T18:27:48.723Z,13.61
2017-10-20T18:30:17.045Z,13.52
2017-10-20T18:32:46.123Z,13.46
2017-10-20T18:35:14.434Z,13.43
2017-10-20T18:37:42.734Z,13.44
2017-10-20T18:40:11.049Z,13.48
2017-10-20T18:42:39.364Z,13.36
2017-10-20T18:45:07.676Z,13.23
2017-10-20T18:47:36.017Z,13.17
2017-10-20T18:50:05.097Z,13.08
2017-10-20T18:52:34.199Z,13.05
2017-10-20T18:55:03.287Z,13.03
2017-10-20T18:57:32.353Z,12.97
2017-10-20T19:00:00.691Z,12.92
2017-10-20T19:02:29.001Z,12.83
2017-10-20T19:04:57.298Z,12.74
2017-10-20T19:07:25.616Z,12.63
2017-10-20T19:09:53.927Z,12.51
2017-10-20T19:12:22.239Z,12.38
2017-10-20T19:14:50.546Z,12.25
2017-10-20T19:17:18.861Z,12.20
2017-10-20T19:19:47.172Z,12.16
2017-10-20T19:22:16.254Z,12.06
2017-10-20T19:24:44.566Z,12.00
2017-10-20T19:27:12.884Z,11.92
2017-10-20T19:29:41.199Z,11.71
2017-10-20T19:32:10.295Z,11.53
2017-10-20T19:34:39.366Z,11.47
2017-10-20T19:37:07.683Z,11.39
2017-10-20T19:39:36.746Z,11.31
2017-10-20T19:42:05.062Z,11.27
2017-10-20T19:44:33.374Z,11.20
2017-10-20T19:47:01.691Z,11.02
2017-10-20T19:49:30.770Z,11.05
2017-10-20T19:51:59.091Z,11.07
2017-10-20T19:54:27.411Z,11.15
2017-10-20T19:56:56.491Z,11.07
2017-10-20T19:59:24.804Z,11.05
2017-10-20T20:01:53.118Z,11.02
2017-10-20T20:04:21.423Z,11.04
2017-10-20T20:06:49.767Z,11.08
2017-10-20T20:09:18.844Z,11.11
2017-10-20T20:11:47.919Z,11.11
2017-10-20T20:14:16.231Z,11.12
2017-10-20T20:16:45.300Z,11.06
2017-10-20T20:19:13.615Z,11.06
2017-10-20T20:21:41.937Z,11.08
2017-10-20T20:24:10.243Z,11.19
2017-10-20T20:26:39.328Z,11.31
2017-10-20T20:29:07.645Z,11.39
2017-10-20T20:31:41.790Z,11.46
2017-10-20T20:34:12.351Z,11.53
2017-10-20T20:36:40.657Z,11.62
2017-10-20T20:39:08.987Z,11.72
2017-10-20T20:41:37.294Z,11.76
2017-10-20T20:44:06.402Z,11.89
2017-10-20T20:46:35.483Z,11.92
2017-10-20T20:49:04.573Z,12.01
2017-10-20T20:51:32.887Z,12.12
2017-10-20T20:54:01.209Z,12.18
2017-10-20T20:56:29.516Z,12.28
2017-10-20T20:58:58.612Z,12.34
2017-10-20T21:01:27.683Z,12.36
2017-10-20T21:03:55.998Z,12.46
2017-10-20T21:06:24.304Z,12.51
2017-10-20T21:08:52.612Z,12.58
2017-10-20T21:11:20.917Z,12.61
2017-10-20T21:13:50.006Z,12.56
2017-10-20T21:16:19.091Z,12.47
2017-10-20T21:18:47.434Z,12.45
2017-10-20T21:21:15.735Z,12.38
2017-10-20T21:23:44.048Z,12.43
2017-10-20T21:26:13.122Z,12.35
2017-10-20T21:28:41.451Z,12.27
2017-10-20T21:31:09.763Z,12.30
2017-10-20T21:33:38.074Z,12.40
2017-10-20T21:36:07.142Z,12.42
2017-10-20T21:38:35.459Z,12.45
2017-10-20T21:41:03.783Z,12.51
2017-10-20T21:43:32.098Z,12.50
2017-10-20T21:46:01.174Z,12.45
2017-10-20T21:48:29.505Z,12.52
2017-10-20T21:50:57.813Z,12.48
2017-10-20T21:53:26.127Z,12.49
2017-10-20T21:55:54.438Z,12.53
2017-10-20T21:58:22.747Z,12.56
2017-10-20T22:00:51.064Z,12.54
2017-10-20T22:03:19.381Z,12.63
2017-10-20T22:05:47.695Z,12.67
2017-10-20T22:08:15.993Z,12.66
2017-10-20T22:10:45.071Z,12.66
2017-10-20T22:13:14.159Z,12.63
2017-10-20T22:15:42.470Z,12.54
2017-10-20T22:18:10.797Z,12.49
2017-10-20T22:20:39.115Z,12.40
2017-10-20T22:23:08.186Z,12.38
2017-10-20T22:25:36.499Z,12.35
2017-10-20T22:28:04.807Z,12.35
2017-10-20T22:30:33.137Z,12.42
2017-10-20T22:33:02.209Z,12.47
2017-10-20T22:35:30.527Z,12.54
2017-10-20T22:37:58.846Z,12.55
2017-10-20T22:40:27.163Z,12.62
2017-10-20T22:42:56.235Z,12.60
2017-10-20T22:45:24.558Z,12.67
2017-10-20T22:47:52.871Z,12.73
2017-10-20T22:50:21.199Z,12.72
2017-10-20T22:52:49.529Z,12.74
2017-10-20T22:55:17.839Z,12.78
2017-10-20T22:57:46.914Z,12.80
2017-10-20T23:00:15.242Z,12.82
2017-10-20T23:02:43.559Z,12.90
2017-10-20T23:05:11.915Z,12.96
2017-10-20T23:07:40.234Z,12.97
2017-10-20T23:10:08.550Z,13.02
2017-10-20T23:12:36.860Z,13.12
2017-10-20T23:15:05.170Z,13.17
2017-10-20T23:17:34.253Z,13.24
2017-10-20T23:20:02.573Z,13.25
2017-10-20T23:22:30.876Z,13.26
2017-10-20T23:24:59.195Z,13.24
2017-10-20T23:27:28.274Z,13.24
2017-10-20T23:29:56.586Z,13.22
2017-10-20T23:32:24.910Z,13.22
2017-10-20T23:34:53.226Z,13.26
2017-10-20T23:37:22.298Z,13.34
2017-10-20T23:39:50.614Z,13.34
2017-10-20T23:42:18.933Z,13.37
2017-10-20T23:44:48.057Z,13.37
2017-10-20T23:47:16.396Z,13.38
2017-10-20T23:49:44.707Z,13.35
2017-10-20T23:52:13.027Z,13.32
2017-10-20T23:54:41.337Z,13.31
2017-10-20T23:57:09.647Z,13.35
2017-10-20T23:59:37.947Z,13.34
